Time;durP1;ratioP1;P1;durP2;ratioP2;P2;SDS_P1;SDS_P2;PMS_P1;PMS_P2;Temp;Humidity;BMP_temperature;BMP_pressure;BME280_temperature;BME280_humidity;BME280_pressure;Samples;Min_cycle;Max_cycle;Signal;HPM_P1;HPM_P2
2023/01/18 00:00:39;;;;;;;5.43;3.00;;;-1.30;99.90;-1.60;97872.00;;;;4964947;28;101420;-62
2023/01/18 00:03:07;;;;;;;4.07;2.97;;;-1.20;99.90;-1.60;97877.00;;;;4967788;28;89262;-62
2023/01/18 00:05:34;;;;;;;5.87;3.23;;;-1.30;99.90;-1.60;97881.00;;;;4967596;28;88633;-62
2023/01/18 00:07:59;;;;;;;4.87;2.93;;;-0.20;99.90;-1.60;97878.00;;;;4971522;28;92423;-62
2023/01/18 00:10:25;;;;;;;7.63;3.37;;;-0.60;99.90;-1.60;97883.00;;;;4969287;28;109294;-63
2023/01/18 00:12:51;;;;;;;3.87;2.73;;;-1.30;99.90;-1.60;97895.00;;;;4967937;28;87815;-62
2023/01/18 00:15:17;;;;;;;6.70;4.23;;;-1.30;99.90;-1.60;97889.00;;;;4969610;28;98381;-64
2023/01/18 00:17:50;;;;;;;7.03;3.70;;;-1.30;99.90;-1.50;97909.00;;;;4967198;28;117006;-63
2023/01/18 00:20:19;;;;;;;5.57;3.60;;;-1.10;99.90;-1.40;97913.00;;;;4966491;28;88122;-62
2023/01/18 00:22:44;;;;;;;7.93;4.33;;;-1.10;99.90;-1.40;97917.00;;;;4967556;28;88089;-63
2023/01/18 00:25:10;;;;;;;4.07;3.50;;;-1.10;99.90;-1.40;97916.00;;;;4968122;28;117382;-62
2023/01/18 00:27:37;;;;;;;12.13;3.60;;;0.00;99.90;-1.30;97904.00;;;;4974674;28;89437;-62
2023/01/18 00:30:05;;;;;;;6.03;3.50;;;-1.00;99.90;-1.30;97909.00;;;;4973181;28;89367;-63
2023/01/18 00:32:30;;;;;;;5.37;3.40;;;-1.00;99.90;-1.20;97904.00;;;;4973016;28;103711;-63
2023/01/18 00:34:56;;;;;;;7.47;3.53;;;-0.90;99.90;-1.20;97914.00;;;;4973979;28;117152;-63
2023/01/18 00:37:26;;;;;;;5.30;3.30;;;-0.90;99.90;-1.10;97928.00;;;;4974467;28;116162;-63
2023/01/18 00:39:51;;;;;;;4.00;3.33;;;-0.80;99.90;-1.10;97921.00;;;;4970373;28;104976;-63
2023/01/18 00:45:02;;;;;;;5.33;3.80;;;-0.70;99.90;-1.10;97926.00;;;;4972912;28;87816;-62
2023/01/18 00:47:28;;;;;;;5.27;3.10;;;-0.70;99.90;-1.00;97913.00;;;;4972414;28;87988;-62
2023/01/18 00:49:53;;;;;;;5.33;3.30;;;-0.60;99.90;-1.00;97906.00;;;;4974015;28;109572;-63
2023/01/18 00:52:21;;;;;;;3.67;2.77;;;-0.60;99.90;-0.90;97923.00;;;;4971672;28;109242;-62
2023/01/18 00:54:47;;;;;;;6.93;3.03;;;-0.60;99.90;-0.80;97919.00;;;;4972321;28;95994;-62
2023/01/18 00:57:12;;;;;;;6.20;3.23;;;-0.50;99.90;-0.80;97911.00;;;;4973002;28;88577;-62
2023/01/18 00:59:38;;;;;;;4.77;3.30;;;-0.40;99.90;-0.70;97919.00;;;;4972985;28;100581;-62
2023/01/18 01:02:04;;;;;;;3.97;2.80;;;-0.30;99.90;-0.70;97917.00;;;;4977116;28;87732;-62
2023/01/18 01:07:14;;;;;;;6.73;3.57;;;-0.30;99.90;-0.50;97915.00;;;;4972120;28;89101;-63
2023/01/18 01:09:41;;;;;;;5.13;2.97;;;-0.20;99.90;-0.50;97928.00;;;;4976521;28;109994;-62
2023/01/18 01:26:12;;;;;;;2.97;2.47;;;0.10;99.90;-0.20;97929.00;;;;4974002;28;87248;-62
2023/01/18 01:28:40;;;;;;;5.97;3.00;;;0.20;99.90;-0.20;97928.00;;;;4972056;28;88182;-62
2023/01/18 01:31:10;;;;;;;3.80;2.67;;;0.10;99.90;-0.10;97926.00;;;;4973277;28;87849;-62
2023/01/18 01:33:36;;;;;;;3.97;2.50;;;0.20;99.90;-0.10;97924.00;;;;4971608;28;88874;-63
2023/01/18 01:36:09;;;;;;;5.37;2.53;;;0.20;99.90;0.00;97923.00;;;;4972714;28;100696;-62
2023/01/18 01:38:36;;;;;;;7.57;2.63;;;0.40;99.90;0.00;97919.00;;;;4969909;28;88153;-62
2023/01/18 01:41:19;;;;;;;2.10;1.73;;;0.30;99.90;0.00;97925.00;;;;4971996;28;88076;-62
2023/01/18 01:43:48;;;;;;;3.97;2.10;;;0.40;99.90;0.00;97928.00;;;;4976140;28;88004;-62
2023/01/18 01:46:45;;;;;;;9.43;2.50;;;0.30;99.90;0.10;97935.00;;;;4975288;28;107861;-62
2023/01/18 01:49:15;;;;;;;4.10;2.17;;;0.40;99.90;0.10;97935.00;;;;4973298;28;89361;-62
2023/01/18 01:51:55;;;;;;;2.27;2.07;;;0.40;99.90;0.10;97933.00;;;;4971658;28;100452;-62
2023/01/18 01:54:28;;;;;;;2.17;1.63;;;0.40;99.90;0.10;97933.00;;;;4975147;28;91855;-62
2023/01/18 01:57:04;;;;;;;4.37;1.83;;;0.40;99.90;0.10;97923.00;;;;4968000;28;109924;-61
2023/01/18 01:59:33;;;;;;;2.80;2.00;;;0.30;99.90;0.20;97931.00;;;;4968337;28;88873;-62
2023/01/18 02:01:59;;;;;;;3.57;1.90;;;0.50;99.90;0.20;97922.00;;;;4972734;28;100985;-62
2023/01/18 02:04:24;;;;;;;1.57;1.47;;;0.50;99.90;0.20;97917.00;;;;4974695;28;87950;-62
2023/01/18 02:06:50;;;;;;;5.13;1.60;;;1.50;99.90;0.20;97925.00;;;;4973586;28;117814;-62
2023/01/18 02:09:17;;;;;;;1.63;1.53;;;0.40;99.90;0.30;97914.00;;;;4972231;28;117381;-62
2023/01/18 02:11:43;;;;;;;1.70;1.40;;;0.60;99.90;0.30;97914.00;;;;4971492;28;88170;-62
2023/01/18 02:14:12;;;;;;;1.20;1.10;;;0.60;99.90;0.30;97914.00;;;;4974271;28;108998;-62
2023/01/18 02:17:13;;;;;;;1.73;1.47;;;0.60;99.90;0.30;97921.00;;;;4970278;28;88010;-62
2023/01/18 02:20:18;;;;;;;1.67;1.57;;;0.80;99.90;0.40;97915.00;;;;4970290;28;113327;-62
2023/01/18 02:22:46;;;;;;;2.60;1.27;;;0.70;99.90;0.40;97915.00;;;;4974184;28;87834;-64
2023/01/18 02:25:50;;;;;;;1.17;1.07;;;0.60;99.90;0.40;97917.00;;;;4969691;28;108163;-63
2023/01/18 02:28:17;;;;;;;2.30;1.63;;;0.70;99.90;0.40;97917.00;;;;4970394;28;87901;-62
2023/01/18 02:30:54;;;;;;;4.93;2.03;;;0.70;99.90;0.50;97920.00;;;;4975032;28;94439;-63
2023/01/18 02:33:31;;;;;;;1.50;1.40;;;0.70;99.90;0.50;97912.00;;;;4968466;28;104369;-63
2023/01/18 02:36:01;;;;;;;1.70;1.40;;;1.50;99.90;0.50;97913.00;;;;4970593;28;87807;-62
2023/01/18 02:38:48;;;;;;;4.07;1.80;;;0.80;99.90;0.50;97913.00;;;;4974343;28;89036;-62
2023/01/18 02:46:29;;;;;;;1.80;1.10;;;0.70;99.90;0.50;97912.00;;;;4973048;28;118030;-65
2023/01/18 02:47:10;;;;;;;2.80;1.90;;;0.80;99.90;0.50;97908.00;;;;4976398;28;88786;-64
2023/01/18 02:49:35;;;;;;;1.87;1.40;;;0.80;99.90;0.50;97895.00;;;;4985297;28;117741;-64
2023/01/18 02:52:06;;;;;;;2.40;1.53;;;0.90;99.90;0.50;97910.00;;;;4983140;28;117226;-64
2023/01/18 02:54:36;;;;;;;2.37;1.80;;;0.80;99.90;0.60;97908.00;;;;4969208;28;87833;-64
2023/01/18 02:57:11;;;;;;;3.13;1.30;;;0.90;99.90;0.50;97909.00;;;;4974077;28;87914;-64
2023/01/18 02:59:46;;;;;;;2.27;1.50;;;0.80;99.90;0.60;97907.00;;;;4971958;28;108307;-64
2023/01/18 03:02:17;;;;;;;3.13;2.13;;;0.80;99.90;0.60;97904.00;;;;4981709;27;108918;-64
2023/01/18 03:04:53;;;;;;;3.47;1.37;;;0.90;99.90;0.60;97908.00;;;;4974015;28;102450;-64
2023/01/18 03:07:32;;;;;;;2.00;1.83;;;1.00;99.90;0.70;97910.00;;;;4982661;27;87831;-62
2023/01/18 03:10:02;;;;;;;4.03;2.20;;;0.90;99.90;0.70;97911.00;;;;4975891;28;96864;-62
2023/01/18 03:13:03;;;;;;;3.87;2.37;;;1.00;99.90;0.70;97905.00;;;;4970002;28;110242;-63
2023/01/18 03:15:52;;;;;;;2.33;1.83;;;1.00;99.90;0.70;97911.00;;;;4971636;28;101375;-64
2023/01/18 03:18:33;;;;;;;2.30;1.77;;;1.00;99.90;0.80;97916.00;;;;4970214;28;97058;-63
2023/01/18 03:21:04;;;;;;;1.63;1.43;;;1.00;99.90;0.80;97912.00;;;;4968897;28;111911;-63
2023/01/18 03:23:44;;;;;;;2.47;1.17;;;1.10;99.90;0.90;97904.00;;;;4972964;28;88407;-63
2023/01/18 03:26:15;;;;;;;3.43;2.37;;;1.10;99.90;0.90;97898.00;;;;4972369;28;88993;-62
2023/01/18 03:34:53;;;;;;;2.87;2.07;;;1.40;99.90;1.00;97888.00;;;;4971884;28;87831;-64
2023/01/18 03:37:36;;;;;;;3.77;2.50;;;1.20;99.90;1.10;97906.00;;;;4972718;28;105745;-62
2023/01/18 03:40:11;;;;;;;5.87;2.30;;;1.40;99.90;1.10;97898.00;;;;4976397;28;87715;-62
2023/01/18 03:43:04;;;;;;;4.27;2.80;;;1.40;99.90;1.10;97889.00;;;;4969622;28;111255;-63
2023/01/18 03:45:39;;;;;;;3.37;2.20;;;1.30;99.90;1.10;97909.00;;;;4970899;28;110485;-62
2023/01/18 03:48:08;;;;;;;5.27;2.20;;;1.50;99.90;1.20;97905.00;;;;4971264;28;87843;-62
2023/01/18 03:50:59;;;;;;;3.17;2.37;;;1.50;99.90;1.10;97904.00;;;;4968901;28;87850;-63
2023/01/18 03:53:37;;;;;;;2.70;2.17;;;1.50;99.90;1.10;97904.00;;;;4969212;28;88161;-63
2023/01/18 03:56:48;;;;;;;4.37;2.30;;;1.50;99.90;1.10;97902.00;;;;4975534;28;88206;-62
2023/01/18 03:59:14;;;;;;;2.77;2.13;;;1.40;99.90;1.20;97910.00;;;;4963172;28;88497;-64
2023/01/18 04:01:43;;;;;;;2.33;1.90;;;1.50;99.90;1.20;97902.00;;;;4968839;28;108479;-64
2023/01/18 04:04:08;;;;;;;4.30;2.57;;;1.50;99.90;1.20;97908.00;;;;4972202;28;88134;-63
2023/01/18 04:06:34;;;;;;;1.93;1.80;;;1.40;99.90;1.20;97916.00;;;;4965800;28;117970;-63
2023/01/18 04:09:00;;;;;;;6.50;2.47;;;1.40;99.90;1.20;97913.00;;;;4968742;28;87830;-63
2023/01/18 04:11:26;;;;;;;3.07;2.00;;;1.40;99.90;1.20;97906.00;;;;4971754;28;88611;-63
2023/01/18 04:13:51;;;;;;;5.57;2.20;;;1.50;99.90;1.20;97906.00;;;;4968722;28;117679;-61
2023/01/18 04:16:17;;;;;;;3.23;2.57;;;1.40;99.90;1.20;97904.00;;;;4971142;28;117808;-64
2023/01/18 04:18:43;;;;;;;2.33;1.90;;;1.50;99.90;1.20;97900.00;;;;4970530;28;111119;-63
2023/01/18 04:21:08;;;;;;;3.27;2.23;;;2.00;99.90;1.20;97896.00;;;;4971343;28;88338;-63
2023/01/18 04:23:34;;;;;;;4.67;2.27;;;1.40;99.90;1.20;97912.00;;;;4967873;28;117143;-63
2023/01/18 04:25:59;;;;;;;6.23;2.37;;;1.40;99.90;1.20;97908.00;;;;4970315;28;117994;-63
2023/01/18 04:28:25;;;;;;;2.30;1.90;;;1.50;99.90;1.20;97908.00;;;;4969166;28;87348;-63
2023/01/18 04:30:53;;;;;;;3.27;2.87;;;1.40;99.90;1.20;97909.00;;;;4973277;28;108899;-65
2023/01/18 04:33:19;;;;;;;3.03;2.47;;;1.50;99.90;1.20;97901.00;;;;4971619;27;88089;-64
2023/01/18 04:35:47;;;;;;;4.53;2.87;;;1.60;99.90;1.20;97912.00;;;;4975500;28;88761;-62
2023/01/18 04:38:12;;;;;;;3.57;3.00;;;1.50;99.90;1.10;97909.00;;;;4971535;28;97415;-63
2023/01/18 04:40:38;;;;;;;5.17;2.90;;;1.40;99.90;1.20;97914.00;;;;4971667;28;87810;-64
2023/01/18 04:43:04;;;;;;;4.77;2.73;;;1.40;99.90;1.20;97916.00;;;;4969066;28;117925;-62
2023/01/18 04:45:30;;;;;;;5.07;3.23;;;1.40;99.90;1.10;97919.00;;;;4965089;28;116908;-64
2023/01/18 04:47:55;;;;;;;6.30;3.10;;;1.40;99.90;1.10;97923.00;;;;4970483;28;110182;-63
2023/01/18 04:50:22;;;;;;;5.80;3.83;;;1.40;99.90;1.10;97932.00;;;;4969293;28;108036;-63
2023/01/18 04:52:48;;;;;;;3.90;3.20;;;1.40;99.90;1.10;97933.00;;;;4973801;28;108125;-64
2023/01/18 04:55:14;;;;;;;4.73;3.33;;;1.50;99.90;1.10;97935.00;;;;4971703;27;90008;-64
2023/01/18 04:57:44;;;;;;;7.87;3.27;;;1.50;99.90;1.10;97917.00;;;;4973827;28;87796;-64
2023/01/18 05:00:13;;;;;;;4.93;3.53;;;1.40;99.90;1.10;97918.00;;;;4969047;28;96896;-63
2023/01/18 05:02:38;;;;;;;4.53;3.37;;;1.40;99.90;1.10;97921.00;;;;4971386;28;89324;-63
2023/01/18 05:05:06;;;;;;;6.60;3.80;;;1.40;99.90;1.10;97920.00;;;;4970638;28;115489;-62
2023/01/18 05:07:32;;;;;;;7.97;3.83;;;1.40;99.90;1.10;97924.00;;;;4969701;28;87831;-63
2023/01/18 05:09:59;;;;;;;7.97;4.10;;;1.50;99.90;1.10;97933.00;;;;4972125;28;87691;-63
2023/01/18 05:12:26;;;;;;;7.07;3.70;;;2.40;99.90;1.10;97929.00;;;;4969759;28;88814;-62
2023/01/18 05:14:52;;;;;;;5.63;3.20;;;1.40;99.90;1.10;97930.00;;;;4973207;28;88270;-63
2023/01/18 05:17:17;;;;;;;6.07;3.80;;;1.40;99.90;1.10;97938.00;;;;4972881;28;110899;-63
2023/01/18 05:19:45;;;;;;;4.97;3.63;;;1.40;99.90;1.20;97940.00;;;;4975387;28;109093;-63
2023/01/18 05:22:11;;;;;;;5.47;3.27;;;2.50;99.90;1.20;97939.00;;;;4976945;28;88208;-62
2023/01/18 05:24:37;;;;;;;6.57;3.57;;;1.40;99.90;1.20;97948.00;;;;4975790;28;99023;-63
2023/01/18 05:27:03;;;;;;;6.23;3.73;;;1.40;99.90;1.20;97952.00;;;;4977688;28;87973;-65
2023/01/18 05:29:28;;;;;;;4.50;3.17;;;1.50;99.90;1.20;97953.00;;;;4973221;28;108658;-63
2023/01/18 05:31:54;;;;;;;6.67;3.73;;;1.50;99.90;1.20;97958.00;;;;4974688;28;91077;-63
2023/01/18 05:34:20;;;;;;;5.60;4.00;;;1.40;99.90;1.20;97961.00;;;;4970175;28;118779;-63
2023/01/18 05:36:47;;;;;;;5.53;3.43;;;1.50;99.90;1.20;97971.00;;;;4973164;28;87924;-63
2023/01/18 05:39:13;;;;;;;4.90;3.70;;;1.50;99.90;1.20;97962.00;;;;4972801;28;101630;-64
2023/01/18 05:41:38;;;;;;;5.10;3.60;;;1.50;99.90;1.20;97975.00;;;;4971532;28;108927;-63
2023/01/18 05:44:05;;;;;;;6.57;3.67;;;1.50;99.90;1.20;97987.00;;;;4968998;28;116144;-63
2023/01/18 05:46:31;;;;;;;4.90;3.50;;;1.50;99.90;1.30;97993.00;;;;4974502;28;109688;-63
2023/01/18 05:48:57;;;;;;;7.17;3.40;;;1.60;99.90;1.30;97997.00;;;;4974005;28;108857;-63
2023/01/18 05:51:24;;;;;;;4.80;3.67;;;1.60;99.90;1.30;98002.00;;;;4971838;28;88908;-63
2023/01/18 05:53:50;;;;;;;4.10;2.93;;;0.90;99.90;1.30;98006.00;;;;4966447;28;104376;-63
2023/01/18 05:56:16;;;;;;;7.47;4.27;;;1.50;99.90;1.30;97999.00;;;;4969271;28;109656;-63
2023/01/18 05:58:41;;;;;;;5.27;3.80;;;1.60;99.90;1.40;97997.00;;;;4972836;28;104532;-63
2023/01/18 06:01:07;;;;;;;6.50;3.50;;;1.70;99.90;1.40;98004.00;;;;4968562;28;118445;-63
2023/01/18 06:03:34;;;;;;;5.93;4.27;;;1.70;99.90;1.40;98011.00;;;;4973166;28;87804;-64
2023/01/18 06:06:00;;;;;;;8.50;4.80;;;0.90;99.90;1.40;98012.00;;;;4973023;28;87047;-64
2023/01/18 06:08:26;;;;;;;8.13;4.77;;;1.70;99.90;1.40;98007.00;;;;4972740;28;87829;-64
2023/01/18 06:10:57;;;;;;;3.93;3.53;;;1.60;99.90;1.40;97999.00;;;;4972107;28;107736;-65
2023/01/18 06:13:26;;;;;;;6.47;4.67;;;1.70;99.90;1.40;98006.00;;;;4973143;28;88862;-63
2023/01/18 06:15:53;;;;;;;10.10;5.47;;;1.90;99.90;1.40;98001.00;;;;4969989;28;87688;-64
2023/01/18 06:18:20;;;;;;;5.07;4.20;;;1.70;99.90;1.40;98006.00;;;;4973164;28;87885;-64
2023/01/18 06:20:46;;;;;;;5.03;3.67;;;2.20;99.90;1.40;98002.00;;;;4978312;28;105838;-63
2023/01/18 06:23:11;;;;;;;7.47;3.47;;;1.70;99.90;1.40;98010.00;;;;4973815;27;116909;-63
2023/01/18 06:25:37;;;;;;;8.00;4.07;;;1.70;99.90;1.30;98014.00;;;;4971563;28;108680;-63
2023/01/18 06:28:04;;;;;;;5.03;3.80;;;1.60;99.90;1.30;98021.00;;;;4972695;28;108627;-64
2023/01/18 06:30:30;;;;;;;8.97;4.97;;;1.60;99.90;1.40;98023.00;;;;4973275;28;88239;-64
2023/01/18 06:32:56;;;;;;;6.70;4.50;;;1.70;99.90;1.30;98018.00;;;;4969104;28;87833;-63
2023/01/18 06:35:22;;;;;;;5.87;4.63;;;1.60;99.90;1.30;98027.00;;;;4979074;28;110829;-65
2023/01/18 06:37:47;;;;;;;8.10;4.30;;;1.60;99.90;1.30;98016.00;;;;4984659;28;97970;-65
2023/01/18 06:40:13;;;;;;;6.40;5.23;;;1.60;99.90;1.30;98015.00;;;;4981254;28;114958;-64
2023/01/18 06:42:40;;;;;;;5.40;3.87;;;2.30;99.90;1.30;98011.00;;;;4973468;28;87837;-64
2023/01/18 06:45:06;;;;;;;6.00;4.37;;;1.60;99.90;1.20;98013.00;;;;4974722;28;88938;-64
2023/01/18 06:47:33;;;;;;;10.37;4.40;;;1.80;99.90;1.20;98013.00;;;;4972503;28;90608;-63
2023/01/18 06:49:59;;;;;;;7.90;4.47;;;1.50;99.90;1.20;98007.00;;;;4971390;28;88853;-65
2023/01/18 06:52:24;;;;;;;7.00;5.20;;;1.40;99.90;1.10;98017.00;;;;4969927;28;117609;-64
2023/01/18 06:54:50;;;;;;;7.13;5.80;;;1.50;99.90;1.10;98030.00;;;;4971413;28;110514;-64
2023/01/18 06:57:16;;;;;;;11.10;5.30;;;1.40;99.90;1.10;98031.00;;;;4969718;28;108583;-64
2023/01/18 06:59:41;;;;;;;11.03;5.57;;;1.30;99.90;1.10;98033.00;;;;4973193;28;87995;-63
2023/01/18 07:02:10;;;;;;;6.20;3.90;;;1.30;99.90;1.00;98043.00;;;;4969390;28;116299;-64
2023/01/18 07:04:42;;;;;;;10.73;5.13;;;2.10;99.90;1.00;98041.00;;;;4970126;28;104082;-63
2023/01/18 07:07:08;;;;;;;9.13;5.73;;;1.30;99.90;0.90;98044.00;;;;4973785;28;87882;-64
2023/01/18 07:09:34;;;;;;;6.60;4.63;;;1.30;99.90;0.90;98051.00;;;;4971232;28;96976;-63
2023/01/18 07:12:00;;;;;;;7.60;4.70;;;1.10;99.90;0.90;98050.00;;;;4971895;28;117574;-64
2023/01/18 07:14:25;;;;;;;11.90;5.87;;;1.20;99.90;0.90;98053.00;;;;4971317;28;110504;-64
2023/01/18 07:16:51;;;;;;;6.50;4.80;;;1.20;99.90;0.80;98051.00;;;;4969203;28;109352;-64
2023/01/18 07:19:17;;;;;;;7.93;6.60;;;1.10;99.90;0.80;98042.00;;;;4968710;28;114950;-64
2023/01/18 07:21:43;;;;;;;8.17;5.33;;;1.10;99.90;0.80;98052.00;;;;4971096;28;88070;-63
2023/01/18 07:24:09;;;;;;;8.40;5.20;;;1.10;99.90;0.80;98046.00;;;;4972179;28;87952;-64
2023/01/18 07:26:34;;;;;;;9.37;6.20;;;1.10;99.90;0.70;98043.00;;;;4970934;28;108994;-63
2023/01/18 07:29:00;;;;;;;6.53;5.37;;;1.00;99.90;0.70;98046.00;;;;4973215;28;88532;-64
2023/01/18 07:31:26;;;;;;;8.47;6.13;;;0.90;99.90;0.70;98045.00;;;;4966749;27;99697;-63
2023/01/18 07:33:52;;;;;;;11.47;6.83;;;1.00;99.90;0.70;98047.00;;;;4967898;28;87766;-63
2023/01/18 07:36:19;;;;;;;7.07;5.83;;;1.00;99.90;0.70;98056.00;;;;4969968;28;95877;-64
2023/01/18 07:38:46;;;;;;;9.83;5.53;;;0.90;99.90;0.60;98062.00;;;;4971580;28;88846;-65
2023/01/18 07:41:13;;;;;;;10.40;6.00;;;1.10;99.90;0.70;98054.00;;;;4966144;28;88604;-64
2023/01/18 07:43:40;;;;;;;9.67;6.07;;;1.00;99.90;0.70;98061.00;;;;4972375;28;87071;-64
2023/01/18 07:46:10;;;;;;;10.13;6.90;;;1.00;99.90;0.70;98065.00;;;;4967317;28;87922;-64
2023/01/18 07:48:36;;;;;;;6.20;4.80;;;0.90;99.90;0.70;98067.00;;;;4971538;28;106485;-65
2023/01/18 07:51:05;;;;;;;8.07;6.23;;;1.00;99.90;0.70;98061.00;;;;4970836;27;118023;-65
2023/01/18 07:53:33;;;;;;;8.90;5.13;;;1.00;99.90;0.70;98072.00;;;;4972773;28;87877;-65
2023/01/18 07:56:01;;;;;;;9.57;5.67;;;0.90;99.90;0.70;98079.00;;;;4968428;28;87855;-63
2023/01/18 07:58:27;;;;;;;11.07;6.77;;;1.00;99.90;0.70;98074.00;;;;4968908;28;106871;-64
2023/01/18 08:00:53;;;;;;;11.13;5.37;;;1.00;99.90;0.70;98068.00;;;;4974595;28;100020;-64
2023/01/18 08:03:20;;;;;;;10.23;6.17;;;0.90;99.90;0.70;98070.00;;;;4972371;27;110338;-63
2023/01/18 08:05:46;;;;;;;14.27;6.80;;;1.10;99.90;0.70;98068.00;;;;4971629;28;97164;-64
2023/01/18 08:08:17;;;;;;;12.33;6.50;;;1.00;99.90;0.70;98075.00;;;;4967200;28;116548;-65
2023/01/18 08:10:43;;;;;;;15.10;7.70;;;1.10;99.90;0.70;98072.00;;;;4972581;28;88011;-65
2023/01/18 08:13:09;;;;;;;10.20;5.23;;;1.00;99.90;0.70;98067.00;;;;4972799;28;87850;-66
2023/01/18 08:15:36;;;;;;;12.30;6.30;;;1.00;99.90;0.70;98060.00;;;;4971041;28;88756;-65
2023/01/18 08:18:04;;;;;;;7.57;5.70;;;1.10;99.90;0.70;98065.00;;;;4967276;28;108478;-64
2023/01/18 08:20:30;;;;;;;10.57;5.90;;;1.00;99.90;0.70;98089.00;;;;4971606;28;88651;-66
2023/01/18 08:22:58;;;;;;;11.70;5.60;;;1.10;99.90;0.70;98083.00;;;;4967398;28;88390;-66
2023/01/18 08:25:28;;;;;;;10.63;6.27;;;1.00;99.90;0.80;98080.00;;;;4972536;27;88130;-67
2023/01/18 08:27:59;;;;;;;11.47;6.27;;;1.10;99.90;0.80;98079.00;;;;4972346;28;88807;-67
2023/01/18 08:30:27;;;;;;;5.70;4.90;;;1.10;99.90;0.80;98079.00;;;;4971762;28;89551;-66
2023/01/18 08:32:59;;;;;;;10.03;5.43;;;1.90;99.90;0.80;98085.00;;;;4970479;28;87105;-65
2023/01/18 08:35:27;;;;;;;10.93;6.13;;;1.10;99.90;0.80;98092.00;;;;4969493;28;88101;-66
2023/01/18 08:37:53;;;;;;;8.37;4.90;;;1.10;99.90;0.80;98088.00;;;;4970512;28;91882;-68
2023/01/18 08:40:20;;;;;;;7.37;4.93;;;1.10;99.90;0.80;98085.00;;;;4968436;27;91957;-65
2023/01/18 08:42:46;;;;;;;8.70;4.93;;;1.10;99.90;0.80;98092.00;;;;4971897;28;87900;-66
2023/01/18 08:45:14;;;;;;;10.17;6.27;;;1.10;99.90;0.80;98084.00;;;;4968016;28;95497;-66
2023/01/18 08:47:40;;;;;;;10.37;5.40;;;1.10;99.90;0.80;98085.00;;;;4970393;28;87787;-66
2023/01/18 08:50:07;;;;;;;7.33;5.70;;;1.30;99.90;0.90;98087.00;;;;4976779;28;88415;-65
2023/01/18 08:52:36;;;;;;;6.27;4.93;;;1.20;99.90;0.90;98088.00;;;;4972393;28;87791;-67
2023/01/18 08:55:04;;;;;;;8.40;4.40;;;1.10;99.90;0.90;98091.00;;;;4975691;28;88004;-67
2023/01/18 08:57:30;;;;;;;7.77;5.60;;;1.10;99.90;0.90;98105.00;;;;4974477;28;88023;-67
2023/01/18 08:59:56;;;;;;;15.33;5.13;;;1.10;99.90;0.90;98106.00;;;;4973364;28;87904;-66
2023/01/18 09:02:25;;;;;;;6.00;4.70;;;1.10;99.90;0.90;98108.00;;;;4971413;28;88021;-67
2023/01/18 09:04:52;;;;;;;7.33;4.90;;;1.10;99.90;0.90;98118.00;;;;4973752;28;108283;-67
2023/01/18 09:07:18;;;;;;;7.33;4.83;;;1.20;99.90;0.80;98116.00;;;;4972611;28;88948;-66
2023/01/18 09:09:43;;;;;;;7.97;4.97;;;1.80;99.90;0.80;98121.00;;;;4971254;28;106768;-66
2023/01/18 09:12:12;;;;;;;6.10;4.10;;;1.10;99.90;0.90;98126.00;;;;4968756;28;88106;-67
2023/01/18 09:14:39;;;;;;;7.47;4.97;;;1.20;99.90;0.80;98125.00;;;;4969981;28;87926;-68
2023/01/18 09:17:04;;;;;;;6.23;3.47;;;1.20;99.90;0.90;98127.00;;;;4973831;28;88988;-68
2023/01/18 09:19:30;;;;;;;7.47;4.80;;;1.10;99.90;0.90;98134.00;;;;4968846;28;117418;-69
2023/01/18 09:21:56;;;;;;;8.40;5.10;;;1.20;99.90;0.90;98134.00;;;;4972079;28;108590;-69
2023/01/18 09:24:21;;;;;;;9.40;4.67;;;1.20;99.90;0.90;98133.00;;;;4973876;28;108159;-70
2023/01/18 09:26:50;;;;;;;5.60;4.77;;;1.20;99.90;0.90;98128.00;;;;4975767;28;87869;-70
2023/01/18 09:29:17;;;;;;;7.93;4.80;;;1.30;99.90;0.90;98138.00;;;;4974318;28;88963;-69
2023/01/18 09:31:42;;;;;;;7.93;4.87;;;1.20;99.90;0.90;98139.00;;;;4976927;28;87921;-70
2023/01/18 09:34:11;;;;;;;7.40;4.07;;;1.30;99.90;1.00;98130.00;;;;4971447;28;107052;-70
2023/01/18 09:36:37;;;;;;;7.80;5.03;;;2.20;99.90;1.00;98141.00;;;;4973968;28;87914;-71
2023/01/18 09:39:04;;;;;;;7.00;5.07;;;1.20;99.90;1.00;98140.00;;;;4974364;28;105212;-70
2023/01/18 09:41:43;;;;;;;10.30;5.70;;;1.30;99.90;1.00;98140.00;;;;4973412;28;87999;-72
2023/01/18 09:44:55;;;;;;;8.27;5.73;;;1.30;99.90;1.00;98138.00;;;;4971438;28;88010;-74
2023/01/18 09:47:45;;;;;;;6.03;4.63;;;1.30;99.90;1.00;98147.00;;;;4913903;28;106440;-74
2023/01/18 09:50:20;;;;;;;9.70;5.33;;;1.30;99.90;1.00;98148.00;;;;4973633;28;110011;-76
2023/01/18 09:53:08;;;;;;;6.43;4.50;;;2.70;99.90;1.00;98148.00;;;;4975045;28;89236;-76
2023/01/18 09:56:05;;;;;;;6.37;4.63;;;1.10;99.90;1.00;98150.00;;;;4969472;28;88804;-75
2023/01/18 09:59:21;;;;;;;10.33;5.90;;;1.50;99.90;1.00;98141.00;;;;4953896;28;114480;-73
2023/01/18 10:01:48;;;;;;;5.40;4.13;;;1.30;99.90;1.10;98142.00;;;;4947099;28;89805;-71
2023/01/18 10:04:27;;;;;;;8.30;5.13;;;1.30;99.90;1.10;98140.00;;;;4973421;28;88116;-72
2023/01/18 10:06:59;;;;;;;6.20;3.80;;;1.40;99.90;1.10;98132.00;;;;4974486;28;88137;-71
2023/01/18 10:09:39;;;;;;;8.50;5.60;;;1.40;99.90;1.10;98128.00;;;;4969126;28;89929;-71
2023/01/18 10:12:22;;;;;;;5.67;4.47;;;1.50;99.90;1.10;98132.00;;;;4972335;28;100140;-70
2023/01/18 10:14:52;;;;;;;7.13;4.87;;;1.40;99.90;1.20;98124.00;;;;4973560;28;87200;-70
2023/01/18 10:17:34;;;;;;;8.83;5.30;;;1.50;99.90;1.20;98138.00;;;;4968985;28;100341;-69
2023/01/18 10:20:00;;;;;;;7.57;4.17;;;1.60;99.90;1.20;98123.00;;;;4972356;28;88354;-68
2023/01/18 10:22:39;;;;;;;9.87;5.23;;;1.60;99.90;1.20;98127.00;;;;4981923;28;112195;-67
2023/01/18 10:25:22;;;;;;;7.00;3.97;;;1.60;99.90;1.30;98124.00;;;;4993270;27;87907;-67
2023/01/18 10:27:57;;;;;;;6.67;3.83;;;1.50;99.90;1.30;98119.00;;;;4984087;28;88007;-67
2023/01/18 10:30:54;;;;;;;7.20;4.20;;;1.50;99.90;1.30;98137.00;;;;4975749;28;89000;-66
2023/01/18 10:33:28;;;;;;;8.63;4.87;;;1.60;99.90;1.30;98145.00;;;;4973787;28;87862;-68
2023/01/18 10:36:06;;;;;;;5.93;4.20;;;1.60;99.90;1.30;98133.00;;;;4976333;28;88041;-66
2023/01/18 10:38:33;;;;;;;7.83;4.40;;;1.60;99.90;1.30;98132.00;;;;4972876;28;101684;-65
2023/01/18 10:41:01;;;;;;;6.70;4.87;;;1.60;99.90;1.30;98138.00;;;;4969257;28;88690;-66
2023/01/18 10:43:29;;;;;;;6.50;4.43;;;1.60;99.90;1.40;98135.00;;;;4974377;28;87942;-66
2023/01/18 10:45:55;;;;;;;7.03;4.10;;;1.60;99.90;1.40;98137.00;;;;4974761;28;104518;-65
2023/01/18 10:48:30;;;;;;;6.10;4.63;;;2.60;99.90;1.40;98147.00;;;;4975621;28;109384;-68
2023/01/18 10:51:04;;;;;;;5.77;4.70;;;1.70;99.90;1.50;98149.00;;;;4973535;28;90582;-68
2023/01/18 10:53:38;;;;;;;8.87;4.83;;;1.70;99.90;1.50;98150.00;;;;4973171;28;87972;-67
2023/01/18 10:56:17;;;;;;;6.10;4.20;;;1.80;99.90;1.50;98153.00;;;;4969095;28;110442;-66
2023/01/18 10:58:59;;;;;;;8.40;5.03;;;1.70;99.90;1.50;98163.00;;;;4973117;28;87926;-66
2023/01/18 11:01:29;;;;;;;8.23;4.50;;;1.70;99.90;1.50;98156.00;;;;4971650;28;89049;-66
2023/01/18 11:04:06;;;;;;;8.17;4.67;;;1.90;99.90;1.50;98163.00;;;;4971300;28;88125;-67
2023/01/18 11:06:53;;;;;;;9.47;6.03;;;1.80;99.90;1.50;98165.00;;;;4991516;27;87105;-68
2023/01/18 11:09:54;;;;;;;7.17;5.40;;;1.80;99.90;1.50;98168.00;;;;4971344;28;89231;-65
2023/01/18 11:12:44;;;;;;;9.33;5.20;;;1.90;99.90;1.50;98167.00;;;;4970950;28;90015;-64
2023/01/18 11:15:13;;;;;;;7.77;4.97;;;1.80;99.90;1.50;98165.00;;;;4971799;28;89042;-64
2023/01/18 11:17:57;;;;;;;7.50;5.43;;;1.80;99.90;1.50;98165.00;;;;4967825;28;101139;-64
2023/01/18 11:20:38;;;;;;;6.40;5.13;;;1.70;99.90;1.50;98173.00;;;;4972490;28;87774;-64
2023/01/18 11:23:14;;;;;;;6.83;4.23;;;1.80;99.90;1.50;98175.00;;;;4968871;28;87845;-65
2023/01/18 11:25:59;;;;;;;8.40;6.40;;;1.60;99.90;1.40;98177.00;;;;4971025;28;88412;-65
2023/01/18 11:28:36;;;;;;;7.30;5.00;;;1.80;99.90;1.50;98200.00;;;;4970482;28;87866;-67
2023/01/18 11:31:21;;;;;;;9.17;6.13;;;1.80;99.90;1.40;98194.00;;;;4971560;28;90108;-66
2023/01/18 11:33:58;;;;;;;9.97;5.70;;;1.70;99.90;1.40;98193.00;;;;4969083;28;111606;-68
2023/01/18 11:36:43;;;;;;;8.73;5.77;;;1.70;99.90;1.40;98182.00;;;;4971563;28;87899;-65
2023/01/18 11:39:29;;;;;;;6.10;5.50;;;2.10;99.90;1.40;98193.00;;;;4971628;28;104139;-66
2023/01/18 11:42:33;;;;;;;6.43;5.30;;;1.70;99.90;1.40;98195.00;;;;4968842;28;88885;-66
2023/01/18 11:45:34;;;;;;;9.33;6.17;;;1.70;99.90;1.40;98191.00;;;;4960568;28;90243;-66
2023/01/18 11:48:41;;;;;;;12.20;7.07;;;1.80;99.90;1.40;98189.00;;;;4972216;28;88018;-66
2023/01/18 11:51:44;;;;;;;10.57;6.93;;;1.70;99.90;1.40;98181.00;;;;4969915;28;87945;-65